createdAt,value
2023-08-19T00:01:53.237Z,94.00
2023-08-19T00:04:24.255Z,93.66
2023-08-19T00:07:07.826Z,93.74
2023-08-19T00:09:39.881Z,93.42
2023-08-19T00:12:13.844Z,92.80
2023-08-19T00:14:44.749Z,92.81
2023-08-19T00:17:16.512Z,92.69
2023-08-19T00:19:54.693Z,93.05
2023-08-19T00:25:23.567Z,93.75
2023-08-19T00:27:59.012Z,93.86
2023-08-19T00:30:42.572Z,93.76
2023-08-19T00:33:17.610Z,93.67
2023-08-19T00:36:15.154Z,93.30
2023-08-19T00:39:00.119Z,93.19
2023-08-19T00:41:33.066Z,93.49
2023-08-19T00:44:32.013Z,93.67
2023-08-19T00:47:17.239Z,93.98
2023-08-19T00:49:58.220Z,93.94
2023-08-19T00:52:32.264Z,93.64
2023-08-19T00:55:08.855Z,93.09
2023-08-19T00:57:46.524Z,93.60
2023-08-19T01:00:21.740Z,94.34
2023-08-19T01:02:56.310Z,94.84
2023-08-19T01:05:47.249Z,94.58
2023-08-19T01:08:33.228Z,93.85
2023-08-19T01:11:14.824Z,93.67
2023-08-19T01:14:03.930Z,93.80
2023-08-19T01:16:43.399Z,94.34
2023-08-19T01:19:41.254Z,94.01
2023-08-19T01:22:18.487Z,93.69
2023-08-19T01:24:59.800Z,94.41
2023-08-19T01:28:24.872Z,94.78
2023-08-19T01:40:12.330Z,95.07
2023-08-19T01:42:48.637Z,94.78
2023-08-19T01:45:44.818Z,94.28
2023-08-19T01:51:56.135Z,94.99
2023-08-19T01:54:44.946Z,95.11
2023-08-19T01:58:17.395Z,95.12
2023-08-19T02:01:02.829Z,94.50
2023-08-19T02:03:37.243Z,94.49
2023-08-19T02:06:27.733Z,94.27
2023-08-19T02:13:08.849Z,94.72
2023-08-19T02:22:43.101Z,95.43
2023-08-19T02:25:48.448Z,95.42
2023-08-19T02:28:28.112Z,95.23
2023-08-19T02:31:09.685Z,94.68
2023-08-19T02:33:50.582Z,94.40
2023-08-19T02:40:08.504Z,94.56
2023-08-19T02:45:56.282Z,95.06
2023-08-19T02:48:32.306Z,95.05
2023-08-19T02:51:31.256Z,95.10
2023-08-19T02:54:56.862Z,94.47
2023-08-19T02:57:58.903Z,94.92
2023-08-19T03:00:32.480Z,95.05
2023-08-19T03:06:33.991Z,95.57
2023-08-19T03:09:22.042Z,95.68
2023-08-19T03:12:37.879Z,94.60
2023-08-19T03:16:21.563Z,94.59
2023-08-19T03:19:16.127Z,94.71
2023-08-19T03:22:05.097Z,94.87
2023-08-19T03:24:34.474Z,95.01
2023-08-19T03:27:23.402Z,95.05
2023-08-19T03:30:03.234Z,94.76
2023-08-19T03:36:17.771Z,95.80
2023-08-19T03:39:01.259Z,95.86
2023-08-19T03:41:37.201Z,95.76
2023-08-19T03:44:08.028Z,95.85
2023-08-19T03:46:51.067Z,95.66
2023-08-19T03:49:25.816Z,95.61
2023-08-19T03:51:59.863Z,95.80
2023-08-19T03:54:35.967Z,95.54
2023-08-19T03:57:08.467Z,95.79
2023-08-19T03:59:44.252Z,95.64
2023-08-19T04:02:13.154Z,95.17
2023-08-19T04:05:01.111Z,95.75
2023-08-19T04:07:45.806Z,95.85
2023-08-19T04:10:14.866Z,95.83
2023-08-19T04:12:43.376Z,94.77
2023-08-19T04:15:18.882Z,95.18
2023-08-19T04:17:51.387Z,95.25
2023-08-19T04:20:21.826Z,95.57
2023-08-19T04:22:54.050Z,95.80
2023-08-19T04:25:22.881Z,95.91
2023-08-19T04:27:56.356Z,96.20
2023-08-19T04:30:31.717Z,96.42
2023-08-19T04:33:04.839Z,96.22
2023-08-19T04:35:36.524Z,96.36
2023-08-19T04:38:12.667Z,96.22
2023-08-19T04:40:43.227Z,96.18
2023-08-19T04:43:15.062Z,95.33
2023-08-19T04:45:51.209Z,94.96
2023-08-19T04:48:24.555Z,94.73
2023-08-19T04:51:01.981Z,94.82
2023-08-19T04:53:33.503Z,94.92
2023-08-19T04:56:07.318Z,95.07
2023-08-19T04:58:38.753Z,95.22
2023-08-19T05:01:08.503Z,95.14
2023-08-19T05:03:37.391Z,94.85
2023-08-19T05:06:07.574Z,94.78
2023-08-19T05:08:37.586Z,94.55
2023-08-19T05:11:06.055Z,94.43
2023-08-19T05:13:34.662Z,94.26
2023-08-19T05:16:03.395Z,94.18
2023-08-19T05:18:31.559Z,94.23
2023-08-19T05:20:59.844Z,94.36
2023-08-19T05:23:29.521Z,94.01
2023-08-19T05:25:57.925Z,93.73
2023-08-19T05:28:29.078Z,93.27
2023-08-19T05:30:57.749Z,93.54
2023-08-19T05:33:25.853Z,93.03
2023-08-19T05:35:54.199Z,92.56
2023-08-19T05:38:22.268Z,92.66
2023-08-19T05:40:52.180Z,91.23
2023-08-19T05:43:23.142Z,92.27
2023-08-19T05:45:51.620Z,92.53
2023-08-19T05:48:19.913Z,91.68
2023-08-19T05:50:53.378Z,91.21
2023-08-19T05:53:21.773Z,91.45
2023-08-19T05:55:53.788Z,91.63
2023-08-19T05:58:25.347Z,91.99
2023-08-19T06:01:15.557Z,91.56
2023-08-19T06:03:45.239Z,91.91
2023-08-19T06:06:12.752Z,92.69
2023-08-19T06:08:40.457Z,92.84
2023-08-19T06:11:10.992Z,92.23
2023-08-19T06:13:39.306Z,92.77
2023-08-19T06:16:07.798Z,92.05
2023-08-19T06:18:36.256Z,92.66
2023-08-19T06:21:05.109Z,92.96
2023-08-19T06:23:34.066Z,92.73
2023-08-19T06:26:01.938Z,92.44
2023-08-19T06:28:31.239Z,92.24
2023-08-19T06:30:59.495Z,92.24
2023-08-19T06:33:29.297Z,92.07
2023-08-19T06:35:59.567Z,92.13
2023-08-19T06:38:30.658Z,92.05
2023-08-19T06:41:06.508Z,91.90
2023-08-19T06:43:38.368Z,92.37
2023-08-19T06:46:07.448Z,93.09
2023-08-19T06:48:36.778Z,92.71
2023-08-19T06:51:05.693Z,92.81
2023-08-19T06:53:35.386Z,93.63
2023-08-19T06:56:09.489Z,94.06
2023-08-19T06:58:43.238Z,94.45
2023-08-19T07:01:15.863Z,94.66
2023-08-19T07:03:44.121Z,94.40
2023-08-19T07:06:16.966Z,94.43
2023-08-19T07:08:45.602Z,95.15
2023-08-19T07:11:13.705Z,94.83
2023-08-19T07:13:43.327Z,95.27
2023-08-19T07:16:13.925Z,94.38
2023-08-19T07:18:43.286Z,95.17
2023-08-19T07:21:13.116Z,95.21
2023-08-19T07:23:42.706Z,94.88
2023-08-19T07:26:10.521Z,93.90
2023-08-19T07:28:38.318Z,93.68
2023-08-19T07:31:10.756Z,93.29
2023-08-19T07:33:38.074Z,92.88
2023-08-19T07:36:06.195Z,93.50
2023-08-19T07:38:33.640Z,93.62
2023-08-19T07:41:00.985Z,93.07
2023-08-19T07:43:28.381Z,93.94
2023-08-19T07:45:55.824Z,93.04
2023-08-19T07:48:24.728Z,92.71
2023-08-19T07:50:52.304Z,92.98
2023-08-19T07:53:19.537Z,92.15
2023-08-19T07:55:48.845Z,91.20
2023-08-19T07:58:16.313Z,92.08
2023-08-19T08:00:43.591Z,90.82
2023-08-19T08:03:10.930Z,90.56
2023-08-19T08:05:39.944Z,90.87
2023-08-19T08:08:07.294Z,91.01
2023-08-19T08:10:34.961Z,89.95
2023-08-19T08:13:02.328Z,90.47
2023-08-19T08:15:31.056Z,89.35
2023-08-19T08:17:58.406Z,89.35
2023-08-19T08:20:25.888Z,89.76
2023-08-19T08:22:54.780Z,88.85
2023-08-19T08:25:22.053Z,89.47
2023-08-19T08:27:49.467Z,88.53
2023-08-19T08:30:16.910Z,88.34
2023-08-19T08:32:44.179Z,88.42
2023-08-19T08:35:11.545Z,87.69
2023-08-19T08:37:38.826Z,87.43
2023-08-19T08:40:09.296Z,87.76
2023-08-19T08:42:36.971Z,88.51
2023-08-19T08:45:05.368Z,87.03
2023-08-19T08:47:32.979Z,86.96
2023-08-19T08:50:00.916Z,86.21
2023-08-19T08:52:28.434Z,86.14
2023-08-19T08:54:56.161Z,85.72
2023-08-19T08:57:25.099Z,87.03
2023-08-19T08:59:54.041Z,85.13
2023-08-19T09:02:22.774Z,87.26
2023-08-19T09:04:50.623Z,86.74
2023-08-19T09:07:25.807Z,85.97
2023-08-19T09:09:54.392Z,86.24
2023-08-19T09:12:23.476Z,85.72
2023-08-19T09:14:57.673Z,86.19
2023-08-19T09:17:25.081Z,86.55
2023-08-19T09:19:52.427Z,85.78
2023-08-19T09:22:23.825Z,84.89
2023-08-19T09:24:54.449Z,83.72
2023-08-19T09:27:27.547Z,85.30
2023-08-19T09:29:56.686Z,84.14
2023-08-19T09:32:31.461Z,83.63
2023-08-19T09:35:03.468Z,82.73
2023-08-19T09:37:31.355Z,82.35
2023-08-19T09:39:58.841Z,82.16
2023-08-19T09:42:28.341Z,82.52
2023-08-19T09:45:00.733Z,82.97
2023-08-19T09:47:29.308Z,82.68
2023-08-19T09:49:58.362Z,82.50
2023-08-19T09:52:25.767Z,81.58
2023-08-19T09:54:54.354Z,82.16
2023-08-19T09:57:33.048Z,82.48
2023-08-19T10:00:05.475Z,80.93
2023-08-19T10:02:34.829Z,80.27
2023-08-19T10:05:02.608Z,79.51
2023-08-19T10:07:33.101Z,79.75
2023-08-19T10:10:05.069Z,78.81
2023-08-19T10:12:35.751Z,79.06
2023-08-19T10:15:06.025Z,78.91
2023-08-19T10:17:37.961Z,77.64
2023-08-19T10:20:11.411Z,77.71
2023-08-19T10:22:43.398Z,78.22
2023-08-19T10:25:13.367Z,76.28
2023-08-19T10:27:43.410Z,75.30
2023-08-19T10:30:39.427Z,75.80
2023-08-19T10:33:33.987Z,74.36
2023-08-19T10:36:04.269Z,74.85
2023-08-19T10:38:46.868Z,74.83
2023-08-19T10:41:20.266Z,76.20
2023-08-19T10:44:03.536Z,75.22
2023-08-19T10:46:38.834Z,74.43
2023-08-19T10:49:07.386Z,71.81
2023-08-19T10:51:49.469Z,71.76
2023-08-19T10:54:25.988Z,72.31
2023-08-19T10:57:06.817Z,71.95
2023-08-19T10:59:35.699Z,72.49
2023-08-19T11:02:06.162Z,71.89
2023-08-19T11:04:34.085Z,72.89
2023-08-19T11:07:01.498Z,71.57
2023-08-19T11:09:29.545Z,71.10
2023-08-19T11:11:57.650Z,69.72
2023-08-19T11:14:25.959Z,71.31
2023-08-19T11:16:55.037Z,71.28
2023-08-19T11:19:24.282Z,71.15
2023-08-19T11:21:52.233Z,71.49
2023-08-19T11:24:20.084Z,68.35
2023-08-19T11:26:52.017Z,68.85
2023-08-19T11:29:19.476Z,68.27
2023-08-19T11:31:48.984Z,68.61
2023-08-19T11:34:16.388Z,67.59
2023-08-19T11:36:46.656Z,66.15
2023-08-19T11:39:14.263Z,67.16
2023-08-19T11:41:41.734Z,65.77
2023-08-19T11:44:09.131Z,66.05
2023-08-19T11:46:36.886Z,67.24
2023-08-19T11:49:07.213Z,63.85
2023-08-19T11:51:38.226Z,63.98
2023-08-19T11:54:09.459Z,64.19
2023-08-19T11:56:50.331Z,63.54
2023-08-19T11:59:18.590Z,64.83
2023-08-19T12:01:47.915Z,63.23
2023-08-19T12:04:19.187Z,63.07
2023-08-19T12:06:48.498Z,61.91
2023-08-19T12:09:19.388Z,62.39
2023-08-19T12:11:48.292Z,61.12
2023-08-19T12:14:16.222Z,61.84
2023-08-19T12:16:43.528Z,59.06
2023-08-19T12:19:10.874Z,59.53
2023-08-19T12:21:38.144Z,58.20
2023-08-19T12:24:06.237Z,56.20
2023-08-19T12:26:35.026Z,56.07
2023-08-19T12:29:03.590Z,53.34
2023-08-19T12:31:30.942Z,54.72
2023-08-19T12:33:58.231Z,56.76
2023-08-19T12:36:25.600Z,58.27
2023-08-19T12:38:52.921Z,58.35
2023-08-19T12:41:20.825Z,57.96
2023-08-19T12:43:49.602Z,57.64
2023-08-19T12:46:18.871Z,56.21
2023-08-19T12:48:46.161Z,58.22
2023-08-19T12:51:13.551Z,59.40
2023-08-19T12:53:41.226Z,56.83
2023-08-19T12:56:08.726Z,59.40
2023-08-19T12:58:36.053Z,59.99
2023-08-19T13:01:06.252Z,62.84
2023-08-19T13:03:33.739Z,62.79
2023-08-19T13:06:01.073Z,64.36
2023-08-19T13:08:28.445Z,63.74
2023-08-19T13:10:55.857Z,63.85
2023-08-19T13:13:23.229Z,64.13
2023-08-19T13:15:50.477Z,64.79
2023-08-19T13:18:20.382Z,65.13
2023-08-19T13:20:47.937Z,64.90
2023-08-19T13:23:15.237Z,64.86
2023-08-19T13:25:42.540Z,65.33
2023-08-19T13:28:10.900Z,65.45
2023-08-19T13:30:38.325Z,66.67
2023-08-19T13:33:07.860Z,67.28
2023-08-19T13:35:36.775Z,68.46
2023-08-19T13:38:04.551Z,70.00
2023-08-19T13:40:31.936Z,68.91
2023-08-19T13:42:59.234Z,70.15
2023-08-19T13:45:26.959Z,71.74
2023-08-19T13:48:11.880Z,72.89
2023-08-19T13:50:43.354Z,71.84
2023-08-19T13:53:10.793Z,73.14
2023-08-19T13:55:38.760Z,74.16
2023-08-19T13:58:06.095Z,74.59
2023-08-19T14:00:33.439Z,77.34
2023-08-19T14:03:01.125Z,80.39
2023-08-19T14:05:30.261Z,77.94
2023-08-19T14:07:59.377Z,74.94
2023-08-19T14:10:28.811Z,79.01
2023-08-19T14:12:56.224Z,79.68
2023-08-19T14:15:25.814Z,79.31
2023-08-19T14:17:54.702Z,78.76
2023-08-19T14:20:22.418Z,78.56
2023-08-19T14:22:49.837Z,77.67
2023-08-19T14:25:18.662Z,78.22
2023-08-19T14:27:46.376Z,77.83
2023-08-19T14:30:14.033Z,76.28
2023-08-19T14:32:41.422Z,76.78
2023-08-19T14:35:08.837Z,75.62
2023-08-19T14:37:39.025Z,75.49
2023-08-19T14:40:09.381Z,76.67
2023-08-19T14:42:38.204Z,76.42
2023-08-19T14:45:06.361Z,76.70
2023-08-19T14:47:34.826Z,77.16
2023-08-19T14:50:02.356Z,78.02
2023-08-19T14:52:29.675Z,78.53
2023-08-19T14:54:56.941Z,78.77
2023-08-19T14:57:24.316Z,76.92
2023-08-19T14:59:53.119Z,77.42
2023-08-19T15:02:25.947Z,76.99
2023-08-19T15:04:53.616Z,77.68
2023-08-19T15:07:20.930Z,79.52
2023-08-19T15:09:48.178Z,81.31
2023-08-19T15:12:15.838Z,82.63
2023-08-19T15:14:43.155Z,84.34
2023-08-19T15:17:11.889Z,81.08
2023-08-19T15:19:39.242Z,81.55
2023-08-19T15:22:06.607Z,80.58
2023-08-19T15:24:33.937Z,79.22
2023-08-19T15:27:01.287Z,80.16
2023-08-19T15:29:28.578Z,80.82
2023-08-19T15:31:56.017Z,80.40
2023-08-19T15:34:28.438Z,78.03
2023-08-19T15:36:55.790Z,78.12
2023-08-19T15:39:24.834Z,77.94
2023-08-19T15:41:52.415Z,78.48
2023-08-19T15:44:20.705Z,78.51
2023-08-19T15:46:48.287Z,78.90
2023-08-19T15:49:15.548Z,78.65
2023-08-19T15:51:44.296Z,76.99
2023-08-19T15:54:11.583Z,77.62
2023-08-19T15:56:38.883Z,77.49
2023-08-19T15:59:06.320Z,77.84
2023-08-19T16:01:33.756Z,78.14
2023-08-19T16:04:01.042Z,76.52
2023-08-19T16:06:30.040Z,77.31
2023-08-19T16:08:58.898Z,77.89
2023-08-19T16:11:26.253Z,78.55
2023-08-19T16:13:53.615Z,78.15
2023-08-19T16:16:21.282Z,79.10
2023-08-19T16:18:48.545Z,79.95
2023-08-19T16:21:15.835Z,79.78
2023-08-19T16:23:43.196Z,78.62
2023-08-19T16:26:13.245Z,78.40
2023-08-19T16:28:40.548Z,80.17
2023-08-19T16:31:08.059Z,81.01
2023-08-19T16:33:36.667Z,80.19
2023-08-19T16:36:04.699Z,80.25
2023-08-19T16:38:32.250Z,80.51
2023-08-19T16:40:59.588Z,80.67
2023-08-19T16:43:28.337Z,80.01
2023-08-19T16:45:56.093Z,80.69
2023-08-19T16:48:23.721Z,79.85
2023-08-19T16:50:51.327Z,79.93
2023-08-19T16:53:19.937Z,79.47
2023-08-19T16:55:54.520Z,79.28
2023-08-19T16:58:22.273Z,80.30
2023-08-19T17:00:59.336Z,79.10
2023-08-19T17:03:26.896Z,79.99
2023-08-19T17:05:54.330Z,80.36
2023-08-19T17:08:22.114Z,80.63
2023-08-19T17:10:49.519Z,80.09
2023-08-19T17:13:17.099Z,80.30
2023-08-19T17:15:44.837Z,81.08
2023-08-19T17:18:14.789Z,81.02
2023-08-19T17:20:42.137Z,81.57
2023-08-19T17:23:09.513Z,81.91
2023-08-19T17:25:37.323Z,81.95
2023-08-19T17:28:05.297Z,81.28
2023-08-19T17:30:32.672Z,81.46
2023-08-19T17:33:00.160Z,82.00
2023-08-19T17:35:29.094Z,82.13
2023-08-19T17:37:56.410Z,82.83
2023-08-19T17:40:24.343Z,83.11
2023-08-19T17:42:51.796Z,82.98
2023-08-19T17:45:19.259Z,83.36
2023-08-19T17:47:46.590Z,84.15
2023-08-19T17:50:13.965Z,84.30
2023-08-19T17:52:44.738Z,84.35
2023-08-19T17:55:13.982Z,84.64
2023-08-19T17:57:41.371Z,84.98
2023-08-19T18:00:09.966Z,85.01
2023-08-19T18:02:37.430Z,85.62
2023-08-19T18:05:05.279Z,86.18
2023-08-19T18:07:33.148Z,86.54
2023-08-19T18:10:03.190Z,87.59
2023-08-19T18:12:30.730Z,86.92
2023-08-19T18:14:58.278Z,87.50
2023-08-19T18:17:25.715Z,88.16
2023-08-19T18:19:53.205Z,88.43
2023-08-19T18:22:21.016Z,88.64
2023-08-19T18:24:48.323Z,88.68
2023-08-19T18:27:17.208Z,89.10
2023-08-19T18:29:44.730Z,89.26
2023-08-19T18:32:12.218Z,89.90
2023-08-19T18:34:40.014Z,90.56
2023-08-19T18:37:07.466Z,90.79
2023-08-19T18:39:34.900Z,91.05
2023-08-19T18:42:02.353Z,91.07
2023-08-19T18:44:31.279Z,91.18
2023-08-19T18:46:58.908Z,92.02
2023-08-19T18:49:27.092Z,92.39
2023-08-19T18:51:54.457Z,92.75
2023-08-19T18:54:23.186Z,93.22
2023-08-19T18:56:50.744Z,93.57
2023-08-19T18:59:18.246Z,93.46
2023-08-19T19:01:47.144Z,93.47
2023-08-19T19:04:14.809Z,93.48
2023-08-19T19:06:42.718Z,92.62
2023-08-19T19:09:10.359Z,93.12
2023-08-19T19:11:38.049Z,92.99
2023-08-19T19:14:05.765Z,93.13
2023-08-19T19:16:33.532Z,92.84
2023-08-19T19:19:02.948Z,92.84
2023-08-19T19:21:30.910Z,92.22
2023-08-19T19:24:01.734Z,92.28
2023-08-19T19:26:29.244Z,92.07
2023-08-19T19:28:56.650Z,92.41
2023-08-19T19:31:24.151Z,92.11
2023-08-19T19:33:51.982Z,92.82
2023-08-19T19:36:21.215Z,93.24
2023-08-19T19:38:48.837Z,93.20
2023-08-19T19:41:16.437Z,93.37
2023-08-19T19:43:44.173Z,93.42
2023-08-19T19:46:11.930Z,93.36
2023-08-19T19:48:39.572Z,93.38
2023-08-19T19:51:07.141Z,93.56
2023-08-19T19:53:36.415Z,93.45
2023-08-19T19:56:04.366Z,93.66
2023-08-19T19:58:32.219Z,93.54
2023-08-19T20:00:59.912Z,93.76
2023-08-19T20:03:27.770Z,93.74
2023-08-19T20:05:55.927Z,93.40
2023-08-19T20:08:24.231Z,92.91
2023-08-19T20:10:53.424Z,92.28
2023-08-19T20:13:21.707Z,92.96
2023-08-19T20:15:49.530Z,92.84
2023-08-19T20:18:19.291Z,92.12
2023-08-19T20:20:46.942Z,92.16
2023-08-19T20:23:14.597Z,91.88
2023-08-19T20:25:42.203Z,92.55
2023-08-19T20:28:11.263Z,92.67
2023-08-19T20:30:41.529Z,91.99
2023-08-19T20:33:12.674Z,92.54
2023-08-19T20:35:40.725Z,92.85
2023-08-19T20:38:08.716Z,93.10
2023-08-19T20:40:37.810Z,93.00
2023-08-19T20:43:05.649Z,93.27
2023-08-19T20:45:34.852Z,93.01
2023-08-19T20:48:04.195Z,93.04
2023-08-19T20:50:32.437Z,93.37
2023-08-19T20:53:00.349Z,93.71
2023-08-19T20:55:28.277Z,93.86
2023-08-19T20:57:57.193Z,94.22
2023-08-19T21:00:25.661Z,94.02
2023-08-19T21:02:58.148Z,94.27
2023-08-19T21:05:26.221Z,94.33
2023-08-19T21:07:54.101Z,94.06
2023-08-19T21:10:21.800Z,93.60
2023-08-19T21:12:49.420Z,93.94
2023-08-19T21:15:18.745Z,94.22
2023-08-19T21:17:50.061Z,94.26
2023-08-19T21:20:21.527Z,94.69
2023-08-19T21:22:49.425Z,94.76
2023-08-19T21:25:17.339Z,94.58
2023-08-19T21:27:47.296Z,94.32
2023-08-19T21:30:15.655Z,94.25
2023-08-19T21:32:46.420Z,93.57
2023-08-19T21:35:14.986Z,93.64
2023-08-19T21:37:44.548Z,93.74
2023-08-19T21:40:15.624Z,94.20
2023-08-19T21:42:44.492Z,94.25
2023-08-19T21:45:13.862Z,94.13
2023-08-19T21:47:43.517Z,94.19
2023-08-19T21:50:11.736Z,94.24
2023-08-19T21:52:41.666Z,94.28
2023-08-19T21:55:12.443Z,94.11
2023-08-19T21:57:40.908Z,94.26
2023-08-19T22:00:14.200Z,93.75
2023-08-19T22:02:42.841Z,93.21
2023-08-19T22:05:11.621Z,92.99
2023-08-19T22:07:39.719Z,93.48
2023-08-19T22:10:10.815Z,94.32
2023-08-19T22:12:40.652Z,94.28
2023-08-19T22:15:09.755Z,93.92
2023-08-19T22:17:39.501Z,93.27
2023-08-19T22:20:09.057Z,93.22
2023-08-19T22:22:37.130Z,93.24
2023-08-19T22:25:06.717Z,93.52
2023-08-19T22:27:35.175Z,93.65
2023-08-19T22:30:05.954Z,94.13
2023-08-19T22:32:34.770Z,94.06
2023-08-19T22:35:04.857Z,94.15
2023-08-19T22:37:34.297Z,94.08
2023-08-19T22:40:02.611Z,93.91
2023-08-19T22:42:30.409Z,93.63
2023-08-19T22:44:58.258Z,93.79
2023-08-19T22:47:28.041Z,94.02
2023-08-19T22:49:58.052Z,94.25
2023-08-19T22:52:31.006Z,94.43
2023-08-19T22:55:02.936Z,94.55
2023-08-19T22:57:33.896Z,94.80
2023-08-19T23:00:02.743Z,94.72
2023-08-19T23:02:33.010Z,94.93
2023-08-19T23:05:01.547Z,94.86
2023-08-19T23:07:36.734Z,94.81
2023-08-19T23:10:08.046Z,95.17
2023-08-19T23:12:36.559Z,95.01
2023-08-19T23:15:05.394Z,94.84
2023-08-19T23:17:39.576Z,94.67
2023-08-19T23:20:15.746Z,94.72
2023-08-19T23:22:46.594Z,94.85
2023-08-19T23:25:19.122Z,94.88
2023-08-19T23:27:51.609Z,95.18
2023-08-19T23:30:24.700Z,94.74
2023-08-19T23:32:55.979Z,94.35
2023-08-19T23:35:26.333Z,94.07
2023-08-19T23:37:59.624Z,94.09
2023-08-19T23:43:23.778Z,94.96
2023-08-19T23:46:01.104Z,95.27
2023-08-19T23:48:36.569Z,94.99
2023-08-19T23:51:15.774Z,94.45
2023-08-19T23:53:55.770Z,94.46
2023-08-19T23:56:58.882Z,94.91
2023-08-19T23:59:42.448Z,95.01
